createdAt,value
2018-12-07T00:00:45.586Z,2.10
2018-12-07T00:03:13.109Z,2.40
2018-12-07T00:05:40.738Z,2.10
2018-12-07T00:08:08.344Z,2.60
2018-12-07T00:10:36.268Z,2.50
2018-12-07T00:13:03.876Z,2.10
2018-12-07T00:15:34.286Z,2.30
2018-12-07T00:18:01.717Z,2.00
2018-12-07T00:20:29.322Z,2.53
2018-12-07T00:22:57.053Z,2.20
2018-12-07T00:25:24.548Z,2.00
2018-12-07T00:27:52.247Z,2.47
2018-12-07T00:30:19.711Z,2.27
2018-12-07T00:32:47.158Z,2.37
2018-12-07T00:35:14.677Z,2.03
2018-12-07T00:37:42.437Z,2.07
2018-12-07T00:40:10.211Z,2.13
2018-12-07T00:42:37.754Z,2.30
2018-12-07T00:45:05.270Z,2.20
2018-12-07T00:47:32.894Z,2.50
2018-12-07T00:50:00.788Z,2.33
2018-12-07T00:52:28.723Z,2.37
2018-12-07T00:54:56.501Z,2.07
2018-12-07T00:57:24.286Z,2.00
2018-12-07T00:59:52.017Z,2.03
2018-12-07T01:02:19.670Z,2.00
2018-12-07T01:04:47.130Z,2.40
2018-12-07T01:07:14.707Z,2.03
2018-12-07T01:09:42.465Z,2.30
2018-12-07T01:12:09.919Z,2.10
2018-12-07T01:14:37.522Z,1.97
2018-12-07T01:17:05.173Z,1.97
2018-12-07T01:19:32.720Z,2.00
2018-12-07T01:22:00.386Z,1.73
2018-12-07T01:24:28.158Z,2.10
2018-12-07T01:26:55.922Z,2.10
2018-12-07T01:29:23.674Z,1.80
2018-12-07T01:31:51.133Z,2.07
2018-12-07T01:34:18.772Z,2.00
2018-12-07T01:36:46.370Z,2.10
2018-12-07T01:39:13.825Z,1.73
2018-12-07T01:41:41.574Z,2.00
2018-12-07T01:44:09.042Z,2.00
2018-12-07T01:46:36.498Z,2.13
2018-12-07T01:49:04.169Z,1.80
2018-12-07T01:51:31.712Z,2.10
2018-12-07T01:53:59.172Z,2.17
2018-12-07T01:56:26.633Z,1.80
2018-12-07T01:58:54.094Z,2.23
2018-12-07T02:01:21.734Z,2.20
2018-12-07T02:03:49.313Z,2.47
2018-12-07T02:06:17.080Z,2.20
2018-12-07T02:08:44.554Z,2.40
2018-12-07T02:11:12.298Z,2.27
2018-12-07T02:13:40.067Z,1.83
2018-12-07T02:16:07.706Z,2.43
2018-12-07T02:18:36.200Z,2.60
2018-12-07T02:21:04.007Z,2.00
2018-12-07T02:23:31.624Z,1.73
2018-12-07T02:25:59.362Z,2.33
2018-12-07T02:28:26.975Z,1.97
2018-12-07T02:30:54.730Z,1.93
2018-12-07T02:33:22.604Z,2.30
2018-12-07T02:35:50.254Z,2.03
2018-12-07T02:38:17.908Z,2.27
2018-12-07T02:40:45.450Z,2.00
2018-12-07T02:43:12.929Z,1.80
2018-12-07T02:45:40.389Z,2.10
2018-12-07T02:48:08.160Z,2.30
2018-12-07T02:50:35.957Z,1.90
2018-12-07T02:53:03.566Z,2.10
2018-12-07T02:55:31.165Z,1.70
2018-12-07T02:57:58.865Z,2.20
2018-12-07T03:00:26.412Z,1.93
2018-12-07T03:02:54.118Z,1.87
2018-12-07T03:05:21.597Z,2.00
2018-12-07T03:07:49.233Z,1.83
2018-12-07T03:10:16.729Z,1.97
2018-12-07T03:12:44.215Z,1.97
2018-12-07T03:15:11.662Z,2.37
2018-12-07T03:17:39.116Z,2.27
2018-12-07T03:20:06.560Z,1.93
2018-12-07T03:22:34.435Z,1.80
2018-12-07T03:25:02.156Z,2.07
2018-12-07T03:27:29.645Z,2.07
2018-12-07T03:29:57.405Z,2.00
2018-12-07T03:32:24.858Z,2.10
2018-12-07T03:34:52.316Z,1.90
2018-12-07T03:37:19.794Z,1.90
2018-12-07T03:39:47.245Z,1.80
2018-12-07T03:42:14.909Z,1.70
2018-12-07T03:44:42.469Z,1.87
2018-12-07T03:47:10.226Z,1.70
2018-12-07T03:49:38.002Z,1.93
2018-12-07T03:52:05.613Z,2.03
2018-12-07T03:54:33.377Z,1.47
2018-12-07T03:57:00.846Z,2.30
2018-12-07T03:59:28.452Z,1.80
2018-12-07T04:01:56.065Z,2.20
2018-12-07T04:04:23.573Z,1.83
2018-12-07T04:06:51.028Z,1.90
2018-12-07T04:09:18.491Z,1.73
2018-12-07T04:11:45.942Z,1.73
2018-12-07T04:14:13.393Z,1.90
2018-12-07T04:16:40.953Z,1.63
2018-12-07T04:19:08.605Z,1.50
2018-12-07T04:21:36.090Z,1.90
2018-12-07T04:24:03.537Z,1.90
2018-12-07T04:26:30.998Z,1.70
2018-12-07T04:28:58.565Z,2.10
2018-12-07T04:31:26.317Z,1.70
2018-12-07T04:33:53.770Z,1.50
2018-12-07T04:36:21.221Z,1.57
2018-12-07T04:38:48.689Z,2.07
2018-12-07T04:41:16.616Z,1.97
2018-12-07T04:43:44.319Z,1.80
2018-12-07T04:46:11.874Z,1.83
2018-12-07T04:48:39.325Z,1.60
2018-12-07T04:51:06.873Z,1.63
2018-12-07T04:53:34.315Z,1.60
2018-12-07T04:56:01.812Z,1.57
2018-12-07T04:58:29.282Z,1.47
2018-12-07T05:00:56.745Z,1.63
2018-12-07T05:03:24.201Z,1.60
2018-12-07T05:05:51.649Z,1.60
2018-12-07T05:08:19.297Z,1.37
2018-12-07T05:10:46.873Z,2.00
2018-12-07T05:13:14.790Z,1.73
2018-12-07T05:15:42.307Z,1.80
2018-12-07T05:18:09.758Z,1.40
2018-12-07T05:20:37.629Z,1.90
2018-12-07T05:23:05.399Z,1.73
2018-12-07T05:25:33.158Z,1.90
2018-12-07T05:28:00.616Z,2.03
2018-12-07T05:30:28.407Z,2.17
2018-12-07T05:32:56.161Z,2.00
2018-12-07T05:35:23.582Z,2.40
2018-12-07T05:37:51.053Z,2.30
2018-12-07T05:40:18.514Z,2.30
2018-12-07T05:42:46.153Z,1.70
2018-12-07T05:45:13.766Z,1.73
2018-12-07T05:47:41.376Z,1.37
2018-12-07T05:50:08.897Z,1.13
2018-12-07T05:52:36.434Z,0.90
2018-12-07T05:55:04.838Z,0.90
2018-12-07T05:57:32.440Z,0.80
2018-12-07T05:59:59.889Z,0.73
2018-12-07T06:02:27.426Z,0.80
2018-12-07T06:04:54.951Z,0.70
2018-12-07T06:07:22.406Z,0.77
2018-12-07T06:09:50.166Z,0.70
2018-12-07T06:12:17.934Z,0.80
2018-12-07T06:14:45.698Z,0.70
2018-12-07T06:17:13.470Z,0.47
2018-12-07T06:19:40.929Z,0.60
2018-12-07T06:22:08.397Z,0.70
2018-12-07T06:24:36.153Z,0.70
2018-12-07T06:27:03.915Z,0.90
2018-12-07T06:29:31.683Z,0.90
2018-12-07T06:31:59.449Z,1.00
2018-12-07T06:34:26.961Z,0.90
2018-12-07T06:36:54.669Z,1.00
2018-12-07T06:39:22.432Z,1.30
2018-12-07T06:41:49.900Z,1.23
2018-12-07T06:44:17.346Z,1.63
2018-12-07T06:46:44.805Z,1.10
2018-12-07T06:49:12.284Z,1.10
2018-12-07T06:51:40.061Z,0.70
2018-12-07T06:54:07.697Z,1.03
2018-12-07T06:56:35.265Z,1.47
2018-12-07T06:59:02.725Z,1.33
2018-12-07T07:01:30.283Z,1.20
2018-12-07T07:03:57.930Z,1.00
2018-12-07T07:06:25.411Z,1.00
2018-12-07T07:08:52.858Z,1.00
2018-12-07T07:11:20.317Z,1.00
2018-12-07T07:13:47.779Z,1.00
2018-12-07T07:16:22.884Z,1.03
2018-12-07T07:18:45.129Z,1.00
2018-12-07T07:21:12.755Z,0.90
2018-12-07T07:23:40.363Z,1.20
2018-12-07T07:26:07.811Z,1.30
2018-12-07T07:28:35.476Z,1.33
2018-12-07T07:31:02.941Z,1.10
2018-12-07T07:33:30.502Z,1.70
2018-12-07T07:35:58.137Z,0.80
2018-12-07T07:38:25.598Z,1.03
2018-12-07T07:40:53.177Z,1.00
2018-12-07T07:43:20.805Z,0.97
2018-12-07T07:45:48.269Z,1.30
2018-12-07T07:48:15.706Z,1.37
2018-12-07T07:50:43.311Z,1.20
2018-12-07T07:53:10.769Z,0.87
2018-12-07T07:55:38.221Z,1.20
2018-12-07T07:58:05.873Z,0.90
2018-12-07T08:00:33.377Z,0.80
2018-12-07T08:03:00.817Z,1.43
2018-12-07T08:05:28.374Z,1.13
2018-12-07T08:07:56.004Z,1.10
2018-12-07T08:10:23.602Z,1.03
2018-12-07T08:12:51.046Z,1.00
2018-12-07T08:15:19.080Z,0.77
2018-12-07T08:17:46.513Z,1.13
2018-12-07T08:20:14.051Z,1.00
2018-12-07T08:22:41.669Z,0.93
2018-12-07T08:25:09.244Z,1.00
2018-12-07T08:27:36.741Z,1.00
2018-12-07T08:30:07.950Z,0.80
2018-12-07T08:32:35.659Z,0.90
2018-12-07T08:35:04.337Z,1.07
2018-12-07T08:37:32.091Z,1.13
2018-12-07T08:39:59.835Z,0.80
2018-12-07T08:42:27.332Z,1.00
2018-12-07T08:44:55.081Z,1.03
2018-12-07T08:47:22.841Z,0.90
2018-12-07T08:49:55.921Z,0.80
2018-12-07T08:52:23.899Z,0.87
2018-12-07T08:54:51.403Z,0.80
2018-12-07T08:57:19.129Z,0.80
2018-12-07T08:59:46.904Z,0.70
2018-12-07T09:02:14.662Z,0.90
2018-12-07T09:04:42.120Z,0.93
2018-12-07T09:07:09.753Z,0.53
2018-12-07T09:09:37.346Z,0.60
2018-12-07T09:12:05.105Z,0.90
2018-12-07T09:14:32.568Z,0.80
2018-12-07T09:17:00.052Z,0.80
2018-12-07T09:19:27.784Z,0.93
2018-12-07T09:21:55.548Z,1.10
2018-12-07T09:24:23.007Z,0.90
2018-12-07T09:26:50.461Z,0.80
2018-12-07T09:29:17.918Z,0.80
2018-12-07T09:31:45.388Z,0.90
2018-12-07T09:34:12.845Z,0.70
2018-12-07T09:36:40.323Z,0.73
2018-12-07T09:39:08.541Z,0.90
2018-12-07T09:41:36.033Z,0.70
2018-12-07T09:44:03.593Z,0.53
2018-12-07T09:46:31.361Z,0.67
2018-12-07T09:48:58.989Z,0.60
2018-12-07T09:51:26.510Z,0.80
2018-12-07T09:53:54.049Z,0.80
2018-12-07T09:56:21.661Z,0.70
2018-12-07T09:58:49.137Z,0.60
2018-12-07T10:01:16.713Z,0.90
2018-12-07T10:03:44.170Z,0.60
2018-12-07T10:06:11.617Z,0.90
2018-12-07T10:08:39.396Z,0.63
2018-12-07T10:11:07.170Z,0.60
2018-12-07T10:13:34.633Z,0.70
2018-12-07T10:16:02.249Z,0.60
2018-12-07T10:18:29.750Z,0.93
2018-12-07T10:20:57.320Z,1.50
2018-12-07T10:23:25.123Z,1.30
2018-12-07T10:25:52.848Z,1.13
2018-12-07T10:28:20.404Z,1.33
2018-12-07T10:30:47.921Z,1.20
2018-12-07T10:33:15.530Z,1.07
2018-12-07T10:35:43.058Z,1.00
2018-12-07T10:38:10.737Z,1.20
2018-12-07T10:40:38.199Z,1.40
2018-12-07T10:43:05.965Z,1.40
2018-12-07T10:45:33.725Z,0.90
2018-12-07T10:48:01.191Z,1.20
2018-12-07T10:50:28.637Z,0.97
2018-12-07T10:52:56.409Z,1.43
2018-12-07T10:55:24.041Z,0.70
2018-12-07T10:57:51.532Z,1.20
2018-12-07T11:00:23.012Z,0.80
2018-12-07T11:06:03.073Z,0.87
2018-12-07T11:08:36.178Z,0.83
2018-12-07T11:14:20.533Z,0.90
2018-12-07T11:16:53.903Z,0.87
2018-12-07T11:19:26.963Z,1.03
2018-12-07T11:25:05.755Z,1.13
2018-12-07T11:27:39.030Z,1.10
2018-12-07T11:30:12.413Z,0.80
2018-12-07T11:32:41.850Z,0.77
2018-12-07T11:35:11.202Z,0.97
2018-12-07T11:37:38.945Z,1.07
2018-12-07T11:40:07.009Z,0.97
2018-12-07T11:42:34.465Z,0.80
2018-12-07T11:45:01.902Z,0.67
2018-12-07T11:47:29.393Z,1.00
2018-12-07T11:49:57.184Z,0.70
2018-12-07T11:52:24.884Z,1.10
2018-12-07T11:54:52.372Z,0.80
2018-12-07T11:57:20.085Z,0.87
2018-12-07T11:59:47.583Z,1.20
2018-12-07T12:02:15.055Z,0.87
2018-12-07T12:04:42.802Z,1.53
2018-12-07T12:07:10.559Z,1.43
2018-12-07T12:09:38.210Z,0.93
2018-12-07T12:12:05.769Z,1.07
2018-12-07T12:14:33.249Z,1.27
2018-12-07T12:17:01.027Z,1.10
2018-12-07T12:19:28.805Z,1.60
2018-12-07T12:21:56.413Z,1.90
2018-12-07T12:24:23.994Z,1.50
2018-12-07T12:26:51.769Z,2.70
2018-12-07T12:29:19.525Z,1.50
2018-12-07T12:31:47.160Z,1.47
2018-12-07T12:34:14.758Z,1.33
2018-12-07T12:36:42.533Z,1.27
2018-12-07T12:39:10.300Z,1.40
2018-12-07T12:41:37.740Z,1.40
2018-12-07T12:44:05.193Z,2.30
2018-12-07T12:46:32.638Z,1.80
2018-12-07T12:49:00.119Z,1.30
2018-12-07T12:51:27.865Z,1.33
2018-12-07T12:53:55.310Z,1.20
2018-12-07T12:56:22.801Z,1.13
2018-12-07T12:58:50.441Z,0.77
2018-12-07T13:01:17.925Z,0.80
2018-12-07T13:03:45.380Z,1.10
2018-12-07T13:06:12.868Z,1.27
2018-12-07T13:08:40.410Z,1.13
2018-12-07T13:11:08.037Z,0.93
2018-12-07T13:13:35.625Z,1.10
2018-12-07T13:16:03.079Z,1.00
2018-12-07T13:18:30.543Z,1.03
2018-12-07T13:20:58.314Z,1.10
2018-12-07T13:23:26.113Z,1.00
2018-12-07T13:25:53.717Z,1.20
2018-12-07T13:28:21.299Z,1.30
2018-12-07T13:30:48.980Z,0.80
2018-12-07T13:33:16.422Z,0.90
2018-12-07T13:35:43.898Z,0.90
2018-12-07T13:38:11.357Z,0.90
2018-12-07T13:40:39.031Z,0.90
2018-12-07T13:43:07.111Z,1.33
2018-12-07T13:45:34.717Z,1.10
2018-12-07T13:48:02.628Z,1.03
2018-12-07T13:50:36.156Z,1.37
2018-12-07T13:53:03.835Z,1.50
2018-12-07T13:55:31.646Z,1.20
2018-12-07T13:57:59.226Z,1.10
2018-12-07T14:00:26.933Z,1.00
2018-12-07T14:02:54.782Z,1.27
2018-12-07T14:05:22.695Z,0.73
2018-12-07T14:07:50.522Z,1.10
2018-12-07T14:10:18.221Z,1.30
2018-12-07T14:12:45.787Z,0.90
2018-12-07T14:15:13.483Z,1.00
2018-12-07T14:17:41.270Z,1.27
2018-12-07T14:20:08.819Z,1.20
2018-12-07T14:22:36.455Z,1.13
2018-12-07T14:25:04.644Z,0.83
2018-12-07T14:27:32.442Z,1.00
2018-12-07T14:30:00.345Z,0.80
2018-12-07T14:32:28.162Z,1.20
2018-12-07T14:34:56.065Z,1.00
2018-12-07T14:37:23.603Z,0.80
2018-12-07T14:39:51.501Z,0.90
2018-12-07T14:42:19.404Z,1.00
2018-12-07T14:44:47.288Z,0.80
2018-12-07T14:47:15.042Z,0.93
2018-12-07T14:49:42.721Z,1.13
2018-12-07T14:52:10.741Z,1.20
2018-12-07T14:54:38.704Z,1.50
2018-12-07T14:57:06.442Z,1.00
2018-12-07T14:59:34.187Z,1.33
2018-12-07T15:02:02.467Z,0.90
2018-12-07T15:04:30.314Z,0.87
2018-12-07T15:06:57.996Z,1.07
2018-12-07T15:09:25.967Z,1.13
2018-12-07T15:11:54.010Z,1.20
2018-12-07T15:14:22.024Z,1.20
2018-12-07T15:16:49.665Z,1.43
2018-12-07T15:19:17.496Z,1.30
2018-12-07T15:21:44.984Z,1.63
2018-12-07T15:24:12.779Z,1.37
2018-12-07T15:26:40.483Z,1.30
2018-12-07T15:29:08.338Z,1.50
2018-12-07T15:31:36.185Z,1.30
2018-12-07T15:34:03.789Z,1.67
2018-12-07T15:36:31.484Z,1.27
2018-12-07T15:38:59.340Z,1.50
2018-12-07T15:41:27.125Z,1.50
2018-12-07T15:43:55.071Z,1.13
2018-12-07T15:46:22.766Z,1.50
2018-12-07T15:48:50.645Z,1.33
2018-12-07T15:51:18.443Z,1.43
2018-12-07T15:53:45.947Z,1.07
2018-12-07T15:56:13.856Z,1.30
2018-12-07T15:58:41.703Z,1.03
2018-12-07T16:01:09.406Z,1.33
2018-12-07T16:03:37.061Z,0.80
2018-12-07T16:06:05.150Z,0.97
2018-12-07T16:08:32.960Z,1.07
2018-12-07T16:11:00.767Z,1.33
2018-12-07T16:13:28.408Z,0.97
2018-12-07T16:15:55.997Z,1.27
2018-12-07T16:18:23.677Z,1.37
2018-12-07T16:20:51.827Z,0.93
2018-12-07T16:23:19.377Z,1.17
2018-12-07T16:25:47.509Z,1.17
2018-12-07T16:28:15.130Z,1.13
2018-12-07T16:30:42.760Z,1.00
2018-12-07T16:33:10.556Z,1.50
2018-12-07T16:35:38.379Z,1.13
2018-12-07T16:38:06.609Z,1.20
2018-12-07T16:40:34.587Z,0.87
2018-12-07T16:43:02.426Z,1.00
2018-12-07T16:45:30.114Z,1.07
2018-12-07T16:47:57.721Z,1.20
2018-12-07T16:50:25.755Z,0.80
2018-12-07T16:52:53.679Z,1.00
2018-12-07T16:55:21.739Z,1.17
2018-12-07T16:57:49.321Z,1.03
2018-12-07T17:00:16.781Z,1.10
2018-12-07T17:02:44.273Z,1.60
2018-12-07T17:05:12.336Z,1.27
2018-12-07T17:07:40.125Z,1.00
2018-12-07T17:10:07.661Z,1.30
2018-12-07T17:12:35.304Z,1.17
2018-12-07T17:15:03.086Z,1.20
2018-12-07T17:17:30.573Z,1.17
2018-12-07T17:19:58.426Z,0.90
2018-12-07T17:22:26.284Z,1.00
2018-12-07T17:24:53.736Z,1.00
2018-12-07T17:27:21.276Z,1.00
2018-12-07T17:29:49.161Z,1.10
2018-12-07T17:32:16.817Z,1.00
2018-12-07T17:34:44.470Z,1.00
2018-12-07T17:37:12.119Z,0.80
2018-12-07T17:39:40.044Z,1.20
2018-12-07T17:42:07.865Z,1.10
2018-12-07T17:44:35.815Z,1.10
2018-12-07T17:47:03.706Z,1.30
2018-12-07T17:49:31.538Z,0.90
2018-12-07T17:51:59.461Z,1.30
2018-12-07T17:54:27.235Z,1.10
2018-12-07T17:56:54.828Z,1.27
2018-12-07T17:59:22.542Z,0.80
2018-12-07T18:01:50.317Z,1.10
2018-12-07T18:04:17.956Z,1.17
2018-12-07T18:06:45.551Z,1.67
2018-12-07T18:09:13.333Z,1.57
2018-12-07T18:11:41.149Z,1.00
2018-12-07T18:14:08.835Z,1.33
2018-12-07T18:16:36.667Z,1.40
2018-12-07T18:19:04.286Z,1.20
2018-12-07T18:21:31.917Z,1.40
2018-12-07T18:23:59.489Z,1.17
2018-12-07T18:26:27.095Z,1.20
2018-12-07T18:28:54.959Z,0.87
2018-12-07T18:31:24.238Z,1.50
2018-12-07T18:33:51.989Z,1.20
2018-12-07T18:36:19.968Z,1.30
2018-12-07T18:38:47.852Z,1.30
2018-12-07T18:41:15.908Z,0.90
2018-12-07T18:43:43.637Z,1.20
2018-12-07T18:46:11.308Z,1.40
2018-12-07T18:48:39.071Z,1.30
2018-12-07T18:51:07.093Z,1.13
2018-12-07T18:53:35.027Z,1.17
2018-12-07T18:56:02.783Z,1.23
2018-12-07T18:58:30.666Z,1.27
2018-12-07T19:00:58.288Z,0.90
2018-12-07T19:03:26.697Z,1.10
2018-12-07T19:05:54.359Z,0.80
2018-12-07T19:08:22.341Z,1.17
2018-12-07T19:10:50.299Z,1.70
2018-12-07T19:13:18.288Z,0.90
2018-12-07T19:15:46.077Z,1.00
2018-12-07T19:18:13.764Z,1.47
2018-12-07T19:20:42.072Z,1.00
2018-12-07T19:23:10.068Z,1.30
2018-12-07T19:25:38.251Z,1.37
2018-12-07T19:28:06.197Z,0.93
2018-12-07T19:30:33.946Z,1.10
2018-12-07T19:33:01.664Z,1.00
2018-12-07T19:35:29.616Z,0.90
2018-12-07T19:37:57.374Z,1.20
2018-12-07T19:40:25.141Z,0.90
2018-12-07T19:42:52.959Z,0.80
2018-12-07T19:45:21.921Z,1.00
2018-12-07T19:47:49.968Z,0.90
2018-12-07T19:50:17.526Z,1.10
2018-12-07T19:52:45.393Z,0.90
2018-12-07T19:55:13.014Z,1.03
2018-12-07T19:57:40.448Z,0.90
2018-12-07T20:00:09.573Z,0.80
2018-12-07T20:02:37.257Z,0.90
2018-12-07T20:05:06.280Z,1.10
2018-12-07T20:07:34.016Z,1.07
2018-12-07T20:10:02.254Z,0.90
2018-12-07T20:12:30.156Z,1.00
2018-12-07T20:14:57.672Z,1.07
2018-12-07T20:17:25.559Z,1.03
2018-12-07T20:19:53.641Z,0.90
2018-12-07T20:22:21.225Z,0.80
2018-12-07T20:24:48.971Z,0.80
2018-12-07T20:27:16.929Z,1.10
2018-12-07T20:29:44.740Z,0.80
2018-12-07T20:32:12.594Z,1.00
2018-12-07T20:34:40.299Z,0.90
2018-12-07T20:37:08.296Z,0.83
2018-12-07T20:39:35.775Z,1.37
2018-12-07T20:42:03.250Z,1.00
2018-12-07T20:44:30.807Z,0.93
2018-12-07T20:46:58.747Z,0.90
2018-12-07T20:49:26.234Z,0.90
2018-12-07T20:51:53.926Z,0.93
2018-12-07T20:54:21.452Z,1.10
2018-12-07T20:56:48.979Z,1.00
2018-12-07T20:59:16.782Z,1.20
2018-12-07T21:01:51.596Z,0.90
2018-12-07T21:04:24.034Z,1.20
2018-12-07T21:10:43.102Z,1.00
2018-12-07T21:13:37.953Z,1.30
2018-12-07T21:16:22.877Z,1.20
2018-12-07T21:18:50.747Z,1.00
2018-12-07T21:21:18.492Z,1.33
2018-12-07T21:23:46.037Z,0.93
2018-12-07T21:26:20.759Z,1.00
2018-12-07T21:28:43.227Z,0.90
2018-12-07T21:31:11.046Z,0.80
2018-12-07T21:33:39.625Z,0.90
2018-12-07T21:36:22.601Z,1.10
2018-12-07T21:38:50.325Z,1.10
2018-12-07T21:41:18.024Z,0.90
2018-12-07T21:43:46.025Z,1.00
2018-12-07T21:46:13.616Z,1.27
2018-12-07T21:48:41.648Z,1.00
2018-12-07T21:51:13.962Z,1.53
2018-12-07T21:53:41.799Z,0.87
2018-12-07T21:56:09.571Z,1.10
2018-12-07T21:58:37.216Z,0.77
2018-12-07T22:01:05.584Z,0.90
2018-12-07T22:03:33.445Z,0.93
2018-12-07T22:06:01.106Z,1.10
2018-12-07T22:08:28.832Z,0.97
2018-12-07T22:10:56.555Z,1.00
2018-12-07T22:13:24.070Z,0.90
2018-12-07T22:15:51.629Z,1.10
2018-12-07T22:18:19.187Z,0.93
2018-12-07T22:20:46.849Z,1.03
2018-12-07T22:23:14.388Z,0.90
2018-12-07T22:25:42.094Z,1.07
2018-12-07T22:28:09.628Z,0.70
2018-12-07T22:30:37.234Z,0.90
2018-12-07T22:33:04.803Z,0.90
2018-12-07T22:35:33.078Z,1.00
2018-12-07T22:38:01.156Z,0.80
2018-12-07T22:40:29.322Z,1.10
2018-12-07T22:42:57.045Z,0.90
2018-12-07T22:45:24.744Z,1.07
2018-12-07T22:47:52.241Z,1.00
2018-12-07T22:50:20.005Z,1.00
2018-12-07T22:52:47.538Z,1.10
2018-12-07T22:55:14.986Z,0.87
2018-12-07T22:57:42.738Z,1.00
2018-12-07T23:00:10.305Z,1.43
2018-12-07T23:02:37.821Z,0.90
2018-12-07T23:05:05.294Z,0.97
2018-12-07T23:07:32.874Z,0.73
2018-12-07T23:10:00.640Z,1.00
2018-12-07T23:12:28.260Z,0.97
2018-12-07T23:14:55.864Z,0.90
2018-12-07T23:17:23.662Z,0.67
2018-12-07T23:19:51.305Z,1.00
2018-12-07T23:22:18.854Z,1.20
2018-12-07T23:24:46.481Z,0.90
2018-12-07T23:27:14.049Z,1.40
2018-12-07T23:29:41.535Z,1.57
2018-12-07T23:32:08.978Z,1.17
2018-12-07T23:34:36.752Z,1.43
2018-12-07T23:37:04.201Z,1.03
2018-12-07T23:39:31.781Z,1.13
2018-12-07T23:41:59.470Z,1.00
2018-12-07T23:44:26.943Z,1.30
2018-12-07T23:46:54.654Z,1.30
2018-12-07T23:49:22.109Z,1.00
2018-12-07T23:51:51.829Z,1.13
2018-12-07T23:54:20.136Z,1.10
2018-12-07T23:56:47.733Z,1.10
2018-12-07T23:59:15.650Z,0.97
